KNQX/NQX METAR and TAF weather

Enter ICAO airport designator
Station Type Date Time Source
KNQX METAR 2020/01/21 13:53 UTC NOAA

KNQX 211353Z 36017KT 10SM SCT025 SCT250 18/09 A3016 RMK AO2 SLP211 T01780094 $


Station Type Date Time Source
KNQX Decoded METAR 2020/01/21 13:53 UTC NOAA

KEY WEST NAVAL AIR STATION, FL, United States (KNQX) 24-35N 81-41W 6M
Jan 21, 2020 - 08:53 AM EST / 2020.01.21 1353 UTC
Wind: from the N (360 degrees) at 20 MPH (17 KT):0
Visibility: 10 mile(s):0
Sky conditions: partly cloudy
Temperature: 64.0 F (17.8 C)
Dew Point: 48.9 F (9.4 C)
Relative Humidity: 57%
Pressure (altimeter): 30.16 in. Hg (1021 hPa)
ob: KNQX 211353Z 36017KT 10SM SCT025 SCT250 18/09 A3016 RMK AO2 SLP211 T01780094
cycle: 14

Station Type Date Time Source
KNQX TAF 2020/01/21 15:55 UTC NOAA

TAF KNQX 2115/2215 36020G28KT 9999 SCT025 540005 QNH3008INS
BECMG 2121/2123 34022G32KT 9999 SCT025 540005 QNH3009INS
TEMPO 2123/2205 BKN025 T20/2119Z T12/2211Z FN20027

Example: see airport list